sensor_id;sensor_type;location;lat;lon;timestamp;P1;durP1;ratioP1;P2;durP2;ratioP2
77800;SDS011;66991;50.058;14.454;2023-09-19T00:01:40;3.25;;;1.00;;
77800;SDS011;66991;50.058;14.454;2023-09-19T00:04:07;2.22;;;0.95;;
77800;SDS011;66991;50.058;14.454;2023-09-19T00:06:34;3.05;;;0.85;;
77800;SDS011;66991;50.058;14.454;2023-09-19T00:09:00;1.98;;;0.98;;
77800;SDS011;66991;50.058;14.454;2023-09-19T00:11:25;1.98;;;0.90;;
77800;SDS011;66991;50.058;14.454;2023-09-19T00:13:51;1.90;;;0.93;;
77800;SDS011;66991;50.058;14.454;2023-09-19T00:16:17;3.25;;;0.80;;
77800;SDS011;66991;50.058;14.454;2023-09-19T00:18:44;1.42;;;0.82;;
77800;SDS011;66991;50.058;14.454;2023-09-19T00:21:09;1.67;;;0.80;;
77800;SDS011;66991;50.058;14.454;2023-09-19T00:23:35;2.30;;;0.80;;
77800;SDS011;66991;50.058;14.454;2023-09-19T00:26:01;1.48;;;0.80;;
77800;SDS011;66991;50.058;14.454;2023-09-19T00:28:26;2.17;;;0.82;;
77800;SDS011;66991;50.058;14.454;2023-09-19T00:30:52;1.70;;;0.80;;
77800;SDS011;66991;50.058;14.454;2023-09-19T00:33:20;1.90;;;0.90;;
77800;SDS011;66991;50.058;14.454;2023-09-19T00:35:49;2.60;;;0.90;;
77800;SDS011;66991;50.058;14.454;2023-09-19T00:38:15;2.13;;;0.80;;
77800;SDS011;66991;50.058;14.454;2023-09-19T00:40:45;2.38;;;0.80;;
77800;SDS011;66991;50.058;14.454;2023-09-19T00:43:11;1.65;;;0.77;;
77800;SDS011;66991;50.058;14.454;2023-09-19T00:45:36;2.63;;;0.90;;
77800;SDS011;66991;50.058;14.454;2023-09-19T00:48:03;2.40;;;0.90;;
77800;SDS011;66991;50.058;14.454;2023-09-19T00:50:31;1.77;;;0.82;;
77800;SDS011;66991;50.058;14.454;2023-09-19T00:52:57;1.27;;;0.77;;
77800;SDS011;66991;50.058;14.454;2023-09-19T00:55:24;1.48;;;0.60;;
77800;SDS011;66991;50.058;14.454;2023-09-19T00:57:50;1.92;;;0.82;;
77800;SDS011;66991;50.058;14.454;2023-09-19T01:00:15;2.30;;;0.90;;
77800;SDS011;66991;50.058;14.454;2023-09-19T01:02:41;1.90;;;0.70;;
77800;SDS011;66991;50.058;14.454;2023-09-19T01:05:08;1.70;;;0.85;;
77800;SDS011;66991;50.058;14.454;2023-09-19T01:07:34;2.20;;;0.93;;
77800;SDS011;66991;50.058;14.454;2023-09-19T01:10:00;2.10;;;0.85;;
77800;SDS011;66991;50.058;14.454;2023-09-19T01:20:51;2.00;;;0.80;;
77800;SDS011;66991;50.058;14.454;2023-09-19T01:28:45;2.42;;;0.85;;
77800;SDS011;66991;50.058;14.454;2023-09-19T01:31:34;2.30;;;0.90;;
77800;SDS011;66991;50.058;14.454;2023-09-19T01:34:03;0.98;;;0.40;;
77800;SDS011;66991;50.058;14.454;2023-09-19T01:36:34;1.70;;;0.70;;
77800;SDS011;66991;50.058;14.454;2023-09-19T01:39:08;1.60;;;0.65;;
77800;SDS011;66991;50.058;14.454;2023-09-19T01:41:47;1.70;;;0.70;;
77800;SDS011;66991;50.058;14.454;2023-09-19T01:44:26;1.33;;;1.00;;
77800;SDS011;66991;50.058;14.454;2023-09-19T01:46:58;1.52;;;0.68;;
77800;SDS011;66991;50.058;14.454;2023-09-19T01:54:51;1.17;;;0.60;;
77800;SDS011;66991;50.058;14.454;2023-09-19T01:57:20;2.13;;;0.88;;
77800;SDS011;66991;50.058;14.454;2023-09-19T02:00:01;4.15;;;0.80;;
77800;SDS011;66991;50.058;14.454;2023-09-19T02:02:42;1.92;;;0.63;;
77800;SDS011;66991;50.058;14.454;2023-09-19T02:05:09;1.70;;;0.90;;
77800;SDS011;66991;50.058;14.454;2023-09-19T02:07:35;3.03;;;0.75;;
77800;SDS011;66991;50.058;14.454;2023-09-19T02:10:00;1.90;;;0.75;;
77800;SDS011;66991;50.058;14.454;2023-09-19T02:12:26;1.88;;;0.77;;
77800;SDS011;66991;50.058;14.454;2023-09-19T02:14:52;1.80;;;0.80;;
77800;SDS011;66991;50.058;14.454;2023-09-19T02:17:17;1.30;;;0.60;;
77800;SDS011;66991;50.058;14.454;2023-09-19T02:19:44;1.77;;;0.77;;
77800;SDS011;66991;50.058;14.454;2023-09-19T02:22:09;1.30;;;0.65;;
77800;SDS011;66991;50.058;14.454;2023-09-19T02:24:35;3.58;;;0.80;;
77800;SDS011;66991;50.058;14.454;2023-09-19T02:27:04;1.23;;;0.80;;
77800;SDS011;66991;50.058;14.454;2023-09-19T02:29:30;1.80;;;1.02;;
77800;SDS011;66991;50.058;14.454;2023-09-19T02:31:55;2.03;;;1.00;;
77800;SDS011;66991;50.058;14.454;2023-09-19T02:34:21;1.98;;;0.70;;
77800;SDS011;66991;50.058;14.454;2023-09-19T02:36:46;1.80;;;0.73;;
77800;SDS011;66991;50.058;14.454;2023-09-19T02:39:12;2.13;;;0.75;;
77800;SDS011;66991;50.058;14.454;2023-09-19T02:41:38;0.98;;;0.60;;
77800;SDS011;66991;50.058;14.454;2023-09-19T02:44:03;1.20;;;0.60;;
77800;SDS011;66991;50.058;14.454;2023-09-19T02:46:32;2.65;;;0.70;;
77800;SDS011;66991;50.058;14.454;2023-09-19T02:49:03;1.65;;;0.68;;
77800;SDS011;66991;50.058;14.454;2023-09-19T02:51:32;2.75;;;0.70;;
77800;SDS011;66991;50.058;14.454;2023-09-19T02:54:01;2.97;;;0.90;;
77800;SDS011;66991;50.058;14.454;2023-09-19T02:56:28;1.20;;;0.70;;
77800;SDS011;66991;50.058;14.454;2023-09-19T02:58:54;1.63;;;0.70;;
77800;SDS011;66991;50.058;14.454;2023-09-19T03:01:20;1.42;;;0.52;;
77800;SDS011;66991;50.058;14.454;2023-09-19T03:03:46;2.10;;;0.90;;
77800;SDS011;66991;50.058;14.454;2023-09-19T03:06:11;1.40;;;0.70;;
77800;SDS011;66991;50.058;14.454;2023-09-19T03:08:38;1.13;;;0.55;;
77800;SDS011;66991;50.058;14.454;2023-09-19T03:11:04;2.13;;;1.00;;
77800;SDS011;66991;50.058;14.454;2023-09-19T03:13:36;1.88;;;0.60;;
77800;SDS011;66991;50.058;14.454;2023-09-19T03:16:03;2.33;;;0.80;;
77800;SDS011;66991;50.058;14.454;2023-09-19T03:18:30;1.63;;;0.70;;
77800;SDS011;66991;50.058;14.454;2023-09-19T03:20:57;1.77;;;1.00;;
77800;SDS011;66991;50.058;14.454;2023-09-19T03:23:25;1.90;;;0.68;;
77800;SDS011;66991;50.058;14.454;2023-09-19T03:25:51;1.83;;;0.73;;
77800;SDS011;66991;50.058;14.454;2023-09-19T03:28:17;1.75;;;0.90;;
77800;SDS011;66991;50.058;14.454;2023-09-19T03:30:43;2.25;;;1.10;;
77800;SDS011;66991;50.058;14.454;2023-09-19T03:33:08;2.10;;;0.60;;
77800;SDS011;66991;50.058;14.454;2023-09-19T03:35:35;1.67;;;0.80;;
77800;SDS011;66991;50.058;14.454;2023-09-19T03:38:01;1.95;;;0.75;;
77800;SDS011;66991;50.058;14.454;2023-09-19T03:40:28;1.50;;;0.90;;
77800;SDS011;66991;50.058;14.454;2023-09-19T03:42:53;2.65;;;0.80;;
77800;SDS011;66991;50.058;14.454;2023-09-19T03:45:19;1.67;;;1.05;;
77800;SDS011;66991;50.058;14.454;2023-09-19T03:47:44;1.73;;;0.90;;
77800;SDS011;66991;50.058;14.454;2023-09-19T03:50:12;1.15;;;0.60;;
77800;SDS011;66991;50.058;14.454;2023-09-19T03:52:40;1.65;;;1.05;;
77800;SDS011;66991;50.058;14.454;2023-09-19T03:55:05;2.47;;;0.93;;
77800;SDS011;66991;50.058;14.454;2023-09-19T03:57:31;1.92;;;0.88;;
77800;SDS011;66991;50.058;14.454;2023-09-19T03:59:56;1.73;;;0.95;;
77800;SDS011;66991;50.058;14.454;2023-09-19T04:02:22;2.17;;;0.90;;
77800;SDS011;66991;50.058;14.454;2023-09-19T04:04:48;1.90;;;1.00;;
77800;SDS011;66991;50.058;14.454;2023-09-19T04:07:13;1.38;;;0.77;;
77800;SDS011;66991;50.058;14.454;2023-09-19T04:09:39;1.48;;;0.75;;
77800;SDS011;66991;50.058;14.454;2023-09-19T04:12:04;2.17;;;0.93;;
77800;SDS011;66991;50.058;14.454;2023-09-19T04:14:30;2.20;;;0.80;;
77800;SDS011;66991;50.058;14.454;2023-09-19T04:16:55;2.05;;;0.70;;
77800;SDS011;66991;50.058;14.454;2023-09-19T04:19:21;2.90;;;0.88;;
77800;SDS011;66991;50.058;14.454;2023-09-19T04:21:47;1.27;;;0.70;;
77800;SDS011;66991;50.058;14.454;2023-09-19T04:24:13;2.40;;;0.90;;
77800;SDS011;66991;50.058;14.454;2023-09-19T04:26:38;2.47;;;0.77;;
77800;SDS011;66991;50.058;14.454;2023-09-19T04:29:04;1.92;;;1.05;;
77800;SDS011;66991;50.058;14.454;2023-09-19T04:31:30;1.83;;;0.90;;
77800;SDS011;66991;50.058;14.454;2023-09-19T04:33:56;1.70;;;0.93;;
77800;SDS011;66991;50.058;14.454;2023-09-19T04:36:23;2.70;;;1.05;;
77800;SDS011;66991;50.058;14.454;2023-09-19T04:38:48;2.80;;;1.00;;
77800;SDS011;66991;50.058;14.454;2023-09-19T04:41:15;2.50;;;1.42;;
77800;SDS011;66991;50.058;14.454;2023-09-19T04:43:40;2.00;;;1.17;;
77800;SDS011;66991;50.058;14.454;2023-09-19T04:46:05;1.75;;;1.00;;
77800;SDS011;66991;50.058;14.454;2023-09-19T04:48:32;2.83;;;1.10;;
77800;SDS011;66991;50.058;14.454;2023-09-19T04:50:59;2.13;;;1.10;;
77800;SDS011;66991;50.058;14.454;2023-09-19T04:53:25;2.03;;;1.00;;
77800;SDS011;66991;50.058;14.454;2023-09-19T04:55:53;3.45;;;1.15;;
77800;SDS011;66991;50.058;14.454;2023-09-19T04:58:20;2.35;;;1.00;;
77800;SDS011;66991;50.058;14.454;2023-09-19T05:00:46;4.30;;;1.48;;
77800;SDS011;66991;50.058;14.454;2023-09-19T05:03:11;3.20;;;1.00;;
77800;SDS011;66991;50.058;14.454;2023-09-19T05:05:37;1.40;;;0.82;;
77800;SDS011;66991;50.058;14.454;2023-09-19T05:08:03;4.13;;;1.25;;
77800;SDS011;66991;50.058;14.454;2023-09-19T05:10:30;2.00;;;1.00;;
77800;SDS011;66991;50.058;14.454;2023-09-19T05:12:56;2.20;;;1.13;;
77800;SDS011;66991;50.058;14.454;2023-09-19T05:15:21;2.30;;;1.00;;
77800;SDS011;66991;50.058;14.454;2023-09-19T05:17:47;3.72;;;1.40;;
77800;SDS011;66991;50.058;14.454;2023-09-19T05:20:16;4.40;;;1.13;;
77800;SDS011;66991;50.058;14.454;2023-09-19T05:22:49;2.03;;;1.00;;
77800;SDS011;66991;50.058;14.454;2023-09-19T05:25:15;7.90;;;1.63;;
77800;SDS011;66991;50.058;14.454;2023-09-19T05:27:43;2.28;;;1.10;;
77800;SDS011;66991;50.058;14.454;2023-09-19T05:30:09;2.60;;;1.17;;
77800;SDS011;66991;50.058;14.454;2023-09-19T05:32:35;1.95;;;0.95;;
77800;SDS011;66991;50.058;14.454;2023-09-19T05:35:00;2.42;;;1.23;;
77800;SDS011;66991;50.058;14.454;2023-09-19T05:37:25;2.47;;;1.20;;
77800;SDS011;66991;50.058;14.454;2023-09-19T05:39:51;3.88;;;1.50;;
77800;SDS011;66991;50.058;14.454;2023-09-19T05:42:18;3.20;;;1.30;;
77800;SDS011;66991;50.058;14.454;2023-09-19T05:44:43;2.13;;;1.02;;
77800;SDS011;66991;50.058;14.454;2023-09-19T05:47:08;3.17;;;1.42;;
77800;SDS011;66991;50.058;14.454;2023-09-19T05:49:34;2.15;;;1.13;;
77800;SDS011;66991;50.058;14.454;2023-09-19T05:52:03;2.60;;;1.10;;
77800;SDS011;66991;50.058;14.454;2023-09-19T05:54:30;2.65;;;1.30;;
77800;SDS011;66991;50.058;14.454;2023-09-19T05:56:55;2.90;;;1.15;;
77800;SDS011;66991;50.058;14.454;2023-09-19T05:59:22;3.15;;;1.20;;
77800;SDS011;66991;50.058;14.454;2023-09-19T06:01:48;2.20;;;1.02;;
77800;SDS011;66991;50.058;14.454;2023-09-19T06:04:13;2.60;;;1.00;;
77800;SDS011;66991;50.058;14.454;2023-09-19T06:06:41;2.35;;;1.15;;
77800;SDS011;66991;50.058;14.454;2023-09-19T06:09:07;2.70;;;1.10;;
77800;SDS011;66991;50.058;14.454;2023-09-19T06:11:34;3.70;;;1.13;;
77800;SDS011;66991;50.058;14.454;2023-09-19T06:14:00;2.90;;;1.13;;
77800;SDS011;66991;50.058;14.454;2023-09-19T06:16:27;2.97;;;1.40;;
77800;SDS011;66991;50.058;14.454;2023-09-19T06:18:53;4.20;;;1.30;;
77800;SDS011;66991;50.058;14.454;2023-09-19T06:21:19;4.53;;;1.27;;
77800;SDS011;66991;50.058;14.454;2023-09-19T06:23:44;2.78;;;1.40;;
77800;SDS011;66991;50.058;14.454;2023-09-19T06:26:10;2.58;;;1.20;;
77800;SDS011;66991;50.058;14.454;2023-09-19T06:28:35;2.80;;;1.30;;
77800;SDS011;66991;50.058;14.454;2023-09-19T06:31:02;2.25;;;1.30;;
77800;SDS011;66991;50.058;14.454;2023-09-19T06:33:27;2.40;;;1.10;;
77800;SDS011;66991;50.058;14.454;2023-09-19T06:35:53;2.72;;;1.20;;
77800;SDS011;66991;50.058;14.454;2023-09-19T06:38:24;2.22;;;1.10;;
77800;SDS011;66991;50.058;14.454;2023-09-19T06:40:49;2.15;;;1.17;;
77800;SDS011;66991;50.058;14.454;2023-09-19T06:43:14;2.47;;;1.23;;
77800;SDS011;66991;50.058;14.454;2023-09-19T06:45:40;5.32;;;1.33;;
77800;SDS011;66991;50.058;14.454;2023-09-19T06:48:05;3.67;;;1.30;;
77800;SDS011;66991;50.058;14.454;2023-09-19T06:50:31;2.38;;;1.13;;
77800;SDS011;66991;50.058;14.454;2023-09-19T06:52:59;4.18;;;1.02;;
77800;SDS011;66991;50.058;14.454;2023-09-19T06:55:25;2.83;;;1.30;;
77800;SDS011;66991;50.058;14.454;2023-09-19T06:57:52;4.90;;;1.20;;
77800;SDS011;66991;50.058;14.454;2023-09-19T07:00:19;2.17;;;1.08;;
77800;SDS011;66991;50.058;14.454;2023-09-19T07:03:00;2.50;;;1.40;;
77800;SDS011;66991;50.058;14.454;2023-09-19T07:05:29;4.05;;;1.17;;
77800;SDS011;66991;50.058;14.454;2023-09-19T07:07:56;1.90;;;1.08;;
77800;SDS011;66991;50.058;14.454;2023-09-19T07:10:23;2.65;;;1.30;;
77800;SDS011;66991;50.058;14.454;2023-09-19T07:13:10;3.25;;;1.25;;
77800;SDS011;66991;50.058;14.454;2023-09-19T07:15:35;2.63;;;1.40;;
77800;SDS011;66991;50.058;14.454;2023-09-19T07:18:04;2.83;;;1.30;;
77800;SDS011;66991;50.058;14.454;2023-09-19T07:20:30;2.95;;;1.38;;
77800;SDS011;66991;50.058;14.454;2023-09-19T07:22:57;3.63;;;1.40;;
77800;SDS011;66991;50.058;14.454;2023-09-19T07:25:24;4.47;;;1.40;;
77800;SDS011;66991;50.058;14.454;2023-09-19T07:27:50;5.57;;;1.27;;
77800;SDS011;66991;50.058;14.454;2023-09-19T07:30:16;2.30;;;1.10;;
77800;SDS011;66991;50.058;14.454;2023-09-19T07:32:41;4.95;;;1.10;;
77800;SDS011;66991;50.058;14.454;2023-09-19T07:35:07;3.42;;;0.88;;
77800;SDS011;66991;50.058;14.454;2023-09-19T07:37:32;4.15;;;1.38;;
77800;SDS011;66991;50.058;14.454;2023-09-19T07:40:07;2.47;;;1.33;;
77800;SDS011;66991;50.058;14.454;2023-09-19T07:42:34;3.53;;;1.35;;
77800;SDS011;66991;50.058;14.454;2023-09-19T07:45:00;2.85;;;1.30;;
77800;SDS011;66991;50.058;14.454;2023-09-19T07:47:26;2.88;;;1.17;;
77800;SDS011;66991;50.058;14.454;2023-09-19T07:49:52;2.35;;;1.05;;
77800;SDS011;66991;50.058;14.454;2023-09-19T07:52:18;2.67;;;1.30;;
77800;SDS011;66991;50.058;14.454;2023-09-19T07:54:44;3.58;;;1.27;;
77800;SDS011;66991;50.058;14.454;2023-09-19T07:57:10;2.10;;;1.20;;
77800;SDS011;66991;50.058;14.454;2023-09-19T07:59:36;1.95;;;1.10;;
77800;SDS011;66991;50.058;14.454;2023-09-19T08:02:03;2.47;;;1.02;;
77800;SDS011;66991;50.058;14.454;2023-09-19T08:04:29;1.50;;;0.90;;
77800;SDS011;66991;50.058;14.454;2023-09-19T08:06:57;1.92;;;0.98;;
77800;SDS011;66991;50.058;14.454;2023-09-19T08:09:25;2.92;;;1.17;;
77800;SDS011;66991;50.058;14.454;2023-09-19T08:11:51;2.85;;;1.00;;
77800;SDS011;66991;50.058;14.454;2023-09-19T08:14:16;6.05;;;1.25;;
77800;SDS011;66991;50.058;14.454;2023-09-19T08:16:41;3.40;;;1.30;;
77800;SDS011;66991;50.058;14.454;2023-09-19T08:19:10;3.15;;;1.23;;
77800;SDS011;66991;50.058;14.454;2023-09-19T08:21:35;2.03;;;1.02;;
77800;SDS011;66991;50.058;14.454;2023-09-19T08:24:01;2.65;;;0.90;;
77800;SDS011;66991;50.058;14.454;2023-09-19T08:26:29;2.30;;;0.95;;
77800;SDS011;66991;50.058;14.454;2023-09-19T08:28:55;2.47;;;0.90;;
77800;SDS011;66991;50.058;14.454;2023-09-19T08:31:21;2.13;;;0.80;;
77800;SDS011;66991;50.058;14.454;2023-09-19T08:33:47;1.95;;;1.27;;
77800;SDS011;66991;50.058;14.454;2023-09-19T08:36:14;2.88;;;1.02;;
77800;SDS011;66991;50.058;14.454;2023-09-19T08:38:40;2.83;;;1.20;;
77800;SDS011;66991;50.058;14.454;2023-09-19T08:41:06;2.80;;;1.10;;
77800;SDS011;66991;50.058;14.454;2023-09-19T08:43:35;2.00;;;1.00;;
77800;SDS011;66991;50.058;14.454;2023-09-19T08:48:39;1.48;;;0.90;;
77800;SDS011;66991;50.058;14.454;2023-09-19T08:51:18;1.80;;;0.90;;
77800;SDS011;66991;50.058;14.454;2023-09-19T08:56:28;2.38;;;1.33;;
77800;SDS011;66991;50.058;14.454;2023-09-19T08:58:55;3.25;;;1.00;;
77800;SDS011;66991;50.058;14.454;2023-09-19T09:01:27;3.15;;;1.10;;
77800;SDS011;66991;50.058;14.454;2023-09-19T09:03:53;1.75;;;0.95;;
77800;SDS011;66991;50.058;14.454;2023-09-19T09:06:20;3.03;;;1.00;;
77800;SDS011;66991;50.058;14.454;2023-09-19T09:08:46;3.38;;;1.00;;
77800;SDS011;66991;50.058;14.454;2023-09-19T09:11:12;2.60;;;1.00;;
77800;SDS011;66991;50.058;14.454;2023-09-19T09:13:39;2.25;;;1.00;;
77800;SDS011;66991;50.058;14.454;2023-09-19T09:16:06;2.35;;;0.90;;
77800;SDS011;66991;50.058;14.454;2023-09-19T09:18:32;3.60;;;1.00;;
77800;SDS011;66991;50.058;14.454;2023-09-19T09:20:58;2.92;;;1.20;;
77800;SDS011;66991;50.058;14.454;2023-09-19T09:23:23;2.00;;;0.98;;
77800;SDS011;66991;50.058;14.454;2023-09-19T09:25:50;2.88;;;0.95;;
77800;SDS011;66991;50.058;14.454;2023-09-19T09:30:49;1.63;;;0.75;;
77800;SDS011;66991;50.058;14.454;2023-09-19T09:33:15;2.40;;;1.10;;
77800;SDS011;66991;50.058;14.454;2023-09-19T09:35:48;3.40;;;1.10;;
77800;SDS011;66991;50.058;14.454;2023-09-19T09:38:20;2.35;;;1.00;;
77800;SDS011;66991;50.058;14.454;2023-09-19T09:40:51;2.05;;;0.82;;
77800;SDS011;66991;50.058;14.454;2023-09-19T09:43:35;2.58;;;0.90;;
77800;SDS011;66991;50.058;14.454;2023-09-19T09:46:12;2.55;;;0.90;;
77800;SDS011;66991;50.058;14.454;2023-09-19T09:48:47;4.10;;;1.05;;
77800;SDS011;66991;50.058;14.454;2023-09-19T09:51:36;2.17;;;1.15;;
77800;SDS011;66991;50.058;14.454;2023-09-19T09:54:13;2.55;;;0.80;;
77800;SDS011;66991;50.058;14.454;2023-09-19T09:57:19;3.00;;;0.80;;
77800;SDS011;66991;50.058;14.454;2023-09-19T10:02:15;3.40;;;0.95;;
77800;SDS011;66991;50.058;14.454;2023-09-19T10:04:49;1.83;;;0.80;;
77800;SDS011;66991;50.058;14.454;2023-09-19T10:07:27;2.30;;;0.90;;
77800;SDS011;66991;50.058;14.454;2023-09-19T10:10:06;2.50;;;0.90;;
77800;SDS011;66991;50.058;14.454;2023-09-19T10:12:51;5.95;;;1.00;;
77800;SDS011;66991;50.058;14.454;2023-09-19T10:15:21;2.53;;;0.70;;
77800;SDS011;66991;50.058;14.454;2023-09-19T10:17:49;2.13;;;0.90;;
77800;SDS011;66991;50.058;14.454;2023-09-19T10:20:19;2.33;;;1.00;;
77800;SDS011;66991;50.058;14.454;2023-09-19T10:22:59;2.13;;;0.90;;
77800;SDS011;66991;50.058;14.454;2023-09-19T10:25:25;1.98;;;0.80;;
77800;SDS011;66991;50.058;14.454;2023-09-19T10:27:53;1.98;;;0.90;;
77800;SDS011;66991;50.058;14.454;2023-09-19T10:30:20;2.00;;;1.10;;
77800;SDS011;66991;50.058;14.454;2023-09-19T10:32:47;2.38;;;0.90;;
77800;SDS011;66991;50.058;14.454;2023-09-19T10:35:22;3.72;;;0.90;;
77800;SDS011;66991;50.058;14.454;2023-09-19T10:37:49;2.85;;;1.00;;
77800;SDS011;66991;50.058;14.454;2023-09-19T10:40:16;1.65;;;0.80;;
77800;SDS011;66991;50.058;14.454;2023-09-19T10:42:42;2.13;;;0.90;;
77800;SDS011;66991;50.058;14.454;2023-09-19T10:45:09;2.30;;;0.88;;
77800;SDS011;66991;50.058;14.454;2023-09-19T10:47:38;1.58;;;0.90;;
77800;SDS011;66991;50.058;14.454;2023-09-19T10:50:04;1.77;;;0.85;;
77800;SDS011;66991;50.058;14.454;2023-09-19T10:52:31;2.03;;;0.98;;
77800;SDS011;66991;50.058;14.454;2023-09-19T10:54:59;3.28;;;0.90;;
77800;SDS011;66991;50.058;14.454;2023-09-19T10:57:26;1.77;;;0.95;;
77800;SDS011;66991;50.058;14.454;2023-09-19T11:00:05;2.10;;;1.10;;
77800;SDS011;66991;50.058;14.454;2023-09-19T11:05:34;2.05;;;0.90;;
77800;SDS011;66991;50.058;14.454;2023-09-19T11:08:00;1.85;;;0.90;;
77800;SDS011;66991;50.058;14.454;2023-09-19T11:13:23;1.75;;;0.93;;
77800;SDS011;66991;50.058;14.454;2023-09-19T11:19:09;3.38;;;1.00;;
77800;SDS011;66991;50.058;14.454;2023-09-19T11:26:39;2.30;;;1.08;;
77800;SDS011;66991;50.058;14.454;2023-09-19T11:29:28;2.97;;;1.00;;
77800;SDS011;66991;50.058;14.454;2023-09-19T11:31:56;2.05;;;1.10;;
77800;SDS011;66991;50.058;14.454;2023-09-19T11:34:39;2.95;;;1.02;;
77800;SDS011;66991;50.058;14.454;2023-09-19T11:39:39;1.83;;;0.90;;
77800;SDS011;66991;50.058;14.454;2023-09-19T11:42:50;1.85;;;1.00;;
77800;SDS011;66991;50.058;14.454;2023-09-19T11:45:06;2.15;;;0.90;;
77800;SDS011;66991;50.058;14.454;2023-09-19T11:47:31;2.35;;;0.90;;
77800;SDS011;66991;50.058;14.454;2023-09-19T11:50:00;2.13;;;0.85;;
77800;SDS011;66991;50.058;14.454;2023-09-19T11:52:27;3.78;;;1.25;;
77800;SDS011;66991;50.058;14.454;2023-09-19T11:54:59;2.45;;;0.80;;
77800;SDS011;66991;50.058;14.454;2023-09-19T11:57:25;2.22;;;1.05;;
77800;SDS011;66991;50.058;14.454;2023-09-19T11:59:51;1.63;;;0.88;;
77800;SDS011;66991;50.058;14.454;2023-09-19T12:02:20;1.35;;;0.70;;
77800;SDS011;66991;50.058;14.454;2023-09-19T12:05:00;1.95;;;0.90;;
77800;SDS011;66991;50.058;14.454;2023-09-19T12:07:25;3.42;;;1.10;;
77800;SDS011;66991;50.058;14.454;2023-09-19T12:10:02;2.25;;;0.90;;
77800;SDS011;66991;50.058;14.454;2023-09-19T12:12:31;1.63;;;0.95;;
77800;SDS011;66991;50.058;14.454;2023-09-19T12:14:58;2.25;;;0.93;;
77800;SDS011;66991;50.058;14.454;2023-09-19T12:17:34;2.75;;;0.98;;
77800;SDS011;66991;50.058;14.454;2023-09-19T12:20:01;2.72;;;0.80;;
77800;SDS011;66991;50.058;14.454;2023-09-19T12:25:08;1.65;;;0.70;;
77800;SDS011;66991;50.058;14.454;2023-09-19T12:27:42;2.13;;;0.75;;
77800;SDS011;66991;50.058;14.454;2023-09-19T12:30:09;1.75;;;0.80;;
77800;SDS011;66991;50.058;14.454;2023-09-19T12:32:39;1.40;;;0.70;;
77800;SDS011;66991;50.058;14.454;2023-09-19T12:35:05;1.35;;;0.68;;
77800;SDS011;66991;50.058;14.454;2023-09-19T12:37:35;1.83;;;0.80;;
77800;SDS011;66991;50.058;14.454;2023-09-19T12:40:05;2.15;;;0.93;;
77800;SDS011;66991;50.058;14.454;2023-09-19T12:42:46;1.80;;;0.70;;
77800;SDS011;66991;50.058;14.454;2023-09-19T12:45:11;2.33;;;0.82;;
77800;SDS011;66991;50.058;14.454;2023-09-19T12:47:40;1.92;;;0.88;;
77800;SDS011;66991;50.058;14.454;2023-09-19T12:52:46;2.25;;;0.82;;
77800;SDS011;66991;50.058;14.454;2023-09-19T12:58:11;2.15;;;0.90;;
77800;SDS011;66991;50.058;14.454;2023-09-19T13:00:41;1.27;;;0.70;;
77800;SDS011;66991;50.058;14.454;2023-09-19T13:05:59;1.88;;;0.80;;
77800;SDS011;66991;50.058;14.454;2023-09-19T13:08:38;3.13;;;0.90;;
77800;SDS011;66991;50.058;14.454;2023-09-19T13:11:16;2.03;;;0.80;;
77800;SDS011;66991;50.058;14.454;2023-09-19T13:16:20;1.80;;;0.90;;
77800;SDS011;66991;50.058;14.454;2023-09-19T13:18:51;2.22;;;1.10;;
77800;SDS011;66991;50.058;14.454;2023-09-19T13:21:27;3.15;;;0.93;;
77800;SDS011;66991;50.058;14.454;2023-09-19T13:24:17;2.78;;;0.95;;
77800;SDS011;66991;50.058;14.454;2023-09-19T13:26:44;2.30;;;0.90;;
77800;SDS011;66991;50.058;14.454;2023-09-19T13:29:10;2.08;;;0.70;;
77800;SDS011;66991;50.058;14.454;2023-09-19T13:31:36;1.70;;;0.80;;
77800;SDS011;66991;50.058;14.454;2023-09-19T13:34:06;1.55;;;0.80;;
77800;SDS011;66991;50.058;14.454;2023-09-19T13:36:33;3.85;;;0.90;;
77800;SDS011;66991;50.058;14.454;2023-09-19T13:38:58;1.70;;;0.80;;
77800;SDS011;66991;50.058;14.454;2023-09-19T13:41:25;2.22;;;0.80;;
77800;SDS011;66991;50.058;14.454;2023-09-19T13:43:51;2.20;;;0.77;;
77800;SDS011;66991;50.058;14.454;2023-09-19T13:46:16;2.72;;;0.98;;
77800;SDS011;66991;50.058;14.454;2023-09-19T13:48:42;1.88;;;0.80;;
77800;SDS011;66991;50.058;14.454;2023-09-19T13:51:08;1.67;;;0.80;;
77800;SDS011;66991;50.058;14.454;2023-09-19T13:53:33;1.40;;;0.77;;
77800;SDS011;66991;50.058;14.454;2023-09-19T13:55:59;2.03;;;0.70;;
77800;SDS011;66991;50.058;14.454;2023-09-19T13:58:24;1.40;;;0.73;;
77800;SDS011;66991;50.058;14.454;2023-09-19T14:00:50;2.38;;;0.90;;
77800;SDS011;66991;50.058;14.454;2023-09-19T14:03:15;2.05;;;0.80;;
77800;SDS011;66991;50.058;14.454;2023-09-19T14:05:41;2.72;;;0.75;;
77800;SDS011;66991;50.058;14.454;2023-09-19T14:08:07;2.00;;;0.63;;
77800;SDS011;66991;50.058;14.454;2023-09-19T14:10:33;1.95;;;0.80;;
77800;SDS011;66991;50.058;14.454;2023-09-19T14:12:59;1.95;;;0.77;;
77800;SDS011;66991;50.058;14.454;2023-09-19T14:15:25;2.00;;;0.90;;
77800;SDS011;66991;50.058;14.454;2023-09-19T14:17:58;2.55;;;1.10;;
77800;SDS011;66991;50.058;14.454;2023-09-19T14:20:25;2.70;;;0.90;;
77800;SDS011;66991;50.058;14.454;2023-09-19T14:22:51;2.13;;;1.00;;
77800;SDS011;66991;50.058;14.454;2023-09-19T14:25:19;2.03;;;0.90;;
77800;SDS011;66991;50.058;14.454;2023-09-19T14:27:46;1.77;;;0.75;;
77800;SDS011;66991;50.058;14.454;2023-09-19T14:30:12;1.98;;;0.77;;
77800;SDS011;66991;50.058;14.454;2023-09-19T14:32:38;2.08;;;0.80;;
77800;SDS011;66991;50.058;14.454;2023-09-19T14:35:04;3.33;;;0.90;;
77800;SDS011;66991;50.058;14.454;2023-09-19T14:37:30;1.38;;;0.63;;
77800;SDS011;66991;50.058;14.454;2023-09-19T14:39:56;1.90;;;0.70;;
77800;SDS011;66991;50.058;14.454;2023-09-19T14:42:21;2.03;;;0.68;;
77800;SDS011;66991;50.058;14.454;2023-09-19T14:44:47;2.00;;;0.90;;
77800;SDS011;66991;50.058;14.454;2023-09-19T14:47:13;1.83;;;0.80;;
77800;SDS011;66991;50.058;14.454;2023-09-19T14:49:39;2.28;;;0.80;;
77800;SDS011;66991;50.058;14.454;2023-09-19T14:52:08;1.73;;;1.05;;
77800;SDS011;66991;50.058;14.454;2023-09-19T14:54:34;1.92;;;0.90;;
77800;SDS011;66991;50.058;14.454;2023-09-19T14:57:00;4.03;;;0.90;;
77800;SDS011;66991;50.058;14.454;2023-09-19T14:59:33;3.90;;;0.85;;
77800;SDS011;66991;50.058;14.454;2023-09-19T15:02:02;2.72;;;0.85;;
77800;SDS011;66991;50.058;14.454;2023-09-19T15:04:28;2.45;;;0.80;;
77800;SDS011;66991;50.058;14.454;2023-09-19T15:06:54;2.95;;;1.00;;
77800;SDS011;66991;50.058;14.454;2023-09-19T15:09:20;2.05;;;0.90;;
77800;SDS011;66991;50.058;14.454;2023-09-19T15:11:50;2.97;;;0.70;;
77800;SDS011;66991;50.058;14.454;2023-09-19T15:14:19;4.13;;;1.00;;
77800;SDS011;66991;50.058;14.454;2023-09-19T15:16:44;1.95;;;0.90;;
77800;SDS011;66991;50.058;14.454;2023-09-19T15:19:10;1.67;;;0.77;;
77800;SDS011;66991;50.058;14.454;2023-09-19T15:21:35;2.88;;;1.25;;
77800;SDS011;66991;50.058;14.454;2023-09-19T15:24:02;3.10;;;0.80;;
77800;SDS011;66991;50.058;14.454;2023-09-19T15:26:31;2.22;;;0.65;;
77800;SDS011;66991;50.058;14.454;2023-09-19T15:28:56;2.80;;;0.90;;
77800;SDS011;66991;50.058;14.454;2023-09-19T15:31:22;1.75;;;0.73;;
77800;SDS011;66991;50.058;14.454;2023-09-19T15:33:47;2.25;;;1.02;;
77800;SDS011;66991;50.058;14.454;2023-09-19T15:36:13;2.03;;;0.90;;
77800;SDS011;66991;50.058;14.454;2023-09-19T15:41:31;2.22;;;0.90;;